sensor_id;sensor_type;location;lat;lon;timestamp;pressure;altitude;pressure_sealevel;temperature;humidity
46456;BME280;32154;47.160;8.120;2022-07-09T00:00:35;96858.06;;;20.07;53.95
46456;BME280;32154;47.160;8.120;2022-07-09T00:05:38;96864.19;;;19.91;55.02
46456;BME280;32154;47.160;8.120;2022-07-09T00:10:40;96856.34;;;20.06;53.72
46456;BME280;32154;47.160;8.120;2022-07-09T00:16:00;96851.69;;;20.00;50.75
46456;BME280;32154;47.160;8.120;2022-07-09T00:21:05;96849.69;;;20.10;50.80
46456;BME280;32154;47.160;8.120;2022-07-09T00:26:10;96847.13;;;19.92;52.57
46456;BME280;32154;47.160;8.120;2022-07-09T00:31:15;96842.19;;;19.54;53.40
46456;BME280;32154;47.160;8.120;2022-07-09T00:36:36;96842.91;;;19.64;51.40
46456;BME280;32154;47.160;8.120;2022-07-09T00:41:38;96841.16;;;19.38;53.46
46456;BME280;32154;47.160;8.120;2022-07-09T00:47:03;96831.44;;;19.29;54.21
46456;BME280;32154;47.160;8.120;2022-07-09T00:52:07;96821.72;;;19.28;55.36
46456;BME280;32154;47.160;8.120;2022-07-09T00:57:15;96825.22;;;19.20;54.29
46456;BME280;32154;47.160;8.120;2022-07-09T01:02:18;96827.59;;;19.32;52.86
46456;BME280;32154;47.160;8.120;2022-07-09T01:07:42;96823.88;;;19.16;53.63
46456;BME280;32154;47.160;8.120;2022-07-09T01:13:06;96815.09;;;19.41;52.58
46456;BME280;32154;47.160;8.120;2022-07-09T01:18:13;96821.47;;;19.48;50.28
46456;BME280;32154;47.160;8.120;2022-07-09T01:23:15;96813.66;;;19.79;51.45
46456;BME280;32154;47.160;8.120;2022-07-09T01:28:41;96814.75;;;19.44;48.17
46456;BME280;32154;47.160;8.120;2022-07-09T01:34:02;96795.25;;;19.85;48.65
46456;BME280;32154;47.160;8.120;2022-07-09T01:39:04;96801.13;;;19.72;50.64
46456;BME280;32154;47.160;8.120;2022-07-09T01:44:06;96803.78;;;19.63;50.95
46456;BME280;32154;47.160;8.120;2022-07-09T01:49:09;96807.78;;;19.59;52.14
46456;BME280;32154;47.160;8.120;2022-07-09T01:54:30;96806.91;;;19.42;51.45
46456;BME280;32154;47.160;8.120;2022-07-09T01:59:34;96810.38;;;18.91;51.61
46456;BME280;32154;47.160;8.120;2022-07-09T02:04:39;96803.69;;;19.30;51.03
46456;BME280;32154;47.160;8.120;2022-07-09T02:10:01;96790.88;;;19.50;50.25
46456;BME280;32154;47.160;8.120;2022-07-09T02:15:06;96791.25;;;19.64;49.42
46456;BME280;32154;47.160;8.120;2022-07-09T02:20:27;96785.00;;;19.38;51.59
46456;BME280;32154;47.160;8.120;2022-07-09T02:25:47;96790.72;;;19.01;51.93
46456;BME280;32154;47.160;8.120;2022-07-09T02:30:50;96784.53;;;18.65;53.87
46456;BME280;32154;47.160;8.120;2022-07-09T02:35:58;96791.50;;;18.32;54.71
46456;BME280;32154;47.160;8.120;2022-07-09T02:41:02;96795.22;;;18.65;53.42
46456;BME280;32154;47.160;8.120;2022-07-09T02:46:08;96803.50;;;18.54;54.88
46456;BME280;32154;47.160;8.120;2022-07-09T02:51:15;96797.09;;;18.02;55.93
46456;BME280;32154;47.160;8.120;2022-07-09T02:56:18;96805.72;;;17.96;55.88
46456;BME280;32154;47.160;8.120;2022-07-09T03:01:24;96798.31;;;18.08;55.20
46456;BME280;32154;47.160;8.120;2022-07-09T03:06:29;96795.75;;;17.80;55.56
46456;BME280;32154;47.160;8.120;2022-07-09T03:11:34;96794.97;;;18.06;55.72
46456;BME280;32154;47.160;8.120;2022-07-09T03:16:39;96796.25;;;18.02;55.54
46456;BME280;32154;47.160;8.120;2022-07-09T03:22:01;96798.19;;;18.09;56.32
46456;BME280;32154;47.160;8.120;2022-07-09T03:27:22;96796.34;;;17.92;55.81
46456;BME280;32154;47.160;8.120;2022-07-09T03:32:42;96791.50;;;18.32;53.45
46456;BME280;32154;47.160;8.120;2022-07-09T03:37:45;96798.00;;;18.56;53.03
46456;BME280;32154;47.160;8.120;2022-07-09T03:43:15;96785.69;;;18.36;53.08
46456;BME280;32154;47.160;8.120;2022-07-09T03:48:36;96794.44;;;17.84;55.78
46456;BME280;32154;47.160;8.120;2022-07-09T03:53:44;96802.44;;;17.84;55.96
46456;BME280;32154;47.160;8.120;2022-07-09T03:59:06;96797.19;;;17.92;55.23
46456;BME280;32154;47.160;8.120;2022-07-09T04:04:27;96801.22;;;18.15;54.81
46456;BME280;32154;47.160;8.120;2022-07-09T04:09:30;96803.53;;;18.09;55.66
46456;BME280;32154;47.160;8.120;2022-07-09T04:14:42;96806.63;;;18.23;56.43
46456;BME280;32154;47.160;8.120;2022-07-09T04:20:05;96810.16;;;17.87;56.23
46456;BME280;32154;47.160;8.120;2022-07-09T04:25:08;96812.19;;;18.30;56.27
46456;BME280;32154;47.160;8.120;2022-07-09T04:30:29;96817.53;;;18.11;55.52
46456;BME280;32154;47.160;8.120;2022-07-09T04:35:35;96814.31;;;18.26;55.36
46456;BME280;32154;47.160;8.120;2022-07-09T04:40:39;96812.97;;;18.48;53.99
46456;BME280;32154;47.160;8.120;2022-07-09T04:46:02;96813.69;;;18.32;56.02
46456;BME280;32154;47.160;8.120;2022-07-09T04:51:24;96812.63;;;18.25;55.76
46456;BME280;32154;47.160;8.120;2022-07-09T04:56:26;96807.56;;;18.40;54.73
46456;BME280;32154;47.160;8.120;2022-07-09T05:01:29;96819.72;;;18.61;55.04
46456;BME280;32154;47.160;8.120;2022-07-09T05:06:50;96811.53;;;18.89;53.74
46456;BME280;32154;47.160;8.120;2022-07-09T05:12:11;96817.88;;;19.22;53.25
46456;BME280;32154;47.160;8.120;2022-07-09T05:17:13;96812.75;;;19.37;52.10
46456;BME280;32154;47.160;8.120;2022-07-09T05:22:16;96815.03;;;19.24;53.64
46456;BME280;32154;47.160;8.120;2022-07-09T05:27:21;96810.97;;;19.71;52.66
46456;BME280;32154;47.160;8.120;2022-07-09T05:32:23;96812.25;;;19.50;52.00
46456;BME280;32154;47.160;8.120;2022-07-09T05:37:25;96806.28;;;19.65;51.18
46456;BME280;32154;47.160;8.120;2022-07-09T05:42:34;96816.00;;;19.66;50.37
46456;BME280;32154;47.160;8.120;2022-07-09T05:47:54;96811.53;;;21.14;47.44
46456;BME280;32154;47.160;8.120;2022-07-09T05:53:15;96817.09;;;22.91;42.38
46456;BME280;32154;47.160;8.120;2022-07-09T05:58:20;96813.31;;;23.89;41.46
46456;BME280;32154;47.160;8.120;2022-07-09T06:03:22;96823.00;;;24.77;40.71
46456;BME280;32154;47.160;8.120;2022-07-09T06:08:43;96821.81;;;25.71;37.46
46456;BME280;32154;47.160;8.120;2022-07-09T06:13:46;96821.31;;;26.36;33.95
46456;BME280;32154;47.160;8.120;2022-07-09T06:18:50;96826.72;;;26.43;35.47
46456;BME280;32154;47.160;8.120;2022-07-09T06:23:55;96814.19;;;26.75;34.13
46456;BME280;32154;47.160;8.120;2022-07-09T06:28:57;96815.25;;;27.47;33.63
46456;BME280;32154;47.160;8.120;2022-07-09T06:34:26;96821.06;;;26.78;34.70
46456;BME280;32154;47.160;8.120;2022-07-09T06:39:47;96826.53;;;27.89;30.84
46456;BME280;32154;47.160;8.120;2022-07-09T06:44:50;96828.34;;;28.60;30.98
46456;BME280;32154;47.160;8.120;2022-07-09T06:50:10;96830.84;;;29.24;30.68
46456;BME280;32154;47.160;8.120;2022-07-09T06:55:31;96840.97;;;28.15;30.58
46456;BME280;32154;47.160;8.120;2022-07-09T07:00:33;96829.56;;;29.64;28.81
46456;BME280;32154;47.160;8.120;2022-07-09T07:05:36;96835.84;;;29.46;28.69
46456;BME280;32154;47.160;8.120;2022-07-09T07:10:38;96829.38;;;30.51;28.36
46456;BME280;32154;47.160;8.120;2022-07-09T07:15:47;96836.19;;;30.29;27.42
46456;BME280;32154;47.160;8.120;2022-07-09T07:20:49;96822.41;;;30.79;28.87
46456;BME280;32154;47.160;8.120;2022-07-09T07:25:54;96821.72;;;30.83;28.34
46456;BME280;32154;47.160;8.120;2022-07-09T07:30:57;96814.66;;;30.28;28.40
46456;BME280;32154;47.160;8.120;2022-07-09T07:35:59;96817.97;;;30.30;29.25
46456;BME280;32154;47.160;8.120;2022-07-09T07:41:01;96818.28;;;30.64;27.75
46456;BME280;32154;47.160;8.120;2022-07-09T07:46:22;96806.91;;;30.01;27.90
46456;BME280;32154;47.160;8.120;2022-07-09T07:51:32;96806.41;;;31.30;27.92
46456;BME280;32154;47.160;8.120;2022-07-09T07:56:36;96801.00;;;31.47;28.37
46456;BME280;32154;47.160;8.120;2022-07-09T08:01:41;96792.13;;;30.63;29.48
46456;BME280;32154;47.160;8.120;2022-07-09T08:06:46;96797.88;;;31.26;28.57
46456;BME280;32154;47.160;8.120;2022-07-09T08:12:08;96796.44;;;31.65;27.26
46456;BME280;32154;47.160;8.120;2022-07-09T08:17:12;96791.03;;;32.28;28.29
46456;BME280;32154;47.160;8.120;2022-07-09T08:22:22;96783.63;;;30.05;28.95
46456;BME280;32154;47.160;8.120;2022-07-09T08:27:43;96777.91;;;30.85;28.26
46456;BME280;32154;47.160;8.120;2022-07-09T08:33:04;96776.34;;;32.46;25.79
46456;BME280;32154;47.160;8.120;2022-07-09T08:38:32;96771.59;;;33.15;24.78
46456;BME280;32154;47.160;8.120;2022-07-09T08:43:38;96768.81;;;33.82;24.72
46456;BME280;32154;47.160;8.120;2022-07-09T08:48:43;96768.06;;;30.84;28.22
46456;BME280;32154;47.160;8.120;2022-07-09T08:53:45;96762.63;;;33.42;26.28
46456;BME280;32154;47.160;8.120;2022-07-09T08:59:06;96765.72;;;34.33;24.97
46456;BME280;32154;47.160;8.120;2022-07-09T09:04:27;96754.72;;;31.64;26.86
46456;BME280;32154;47.160;8.120;2022-07-09T09:09:34;96750.56;;;34.53;24.29
46456;BME280;32154;47.160;8.120;2022-07-09T09:14:37;96745.28;;;33.31;23.14
46456;BME280;32154;47.160;8.120;2022-07-09T09:19:40;96744.19;;;34.47;21.82
46456;BME280;32154;47.160;8.120;2022-07-09T09:24:42;96749.19;;;33.90;23.37
46456;BME280;32154;47.160;8.120;2022-07-09T09:30:03;96739.41;;;34.27;22.79
46456;BME280;32154;47.160;8.120;2022-07-09T09:35:33;96746.19;;;34.19;22.64
46456;BME280;32154;47.160;8.120;2022-07-09T09:40:36;96749.13;;;29.75;26.44
46456;BME280;32154;47.160;8.120;2022-07-09T09:45:39;96743.16;;;29.85;26.65
46456;BME280;32154;47.160;8.120;2022-07-09T09:50:42;96727.84;;;33.10;22.33
46456;BME280;32154;47.160;8.120;2022-07-09T09:56:04;96729.97;;;33.80;22.38
46456;BME280;32154;47.160;8.120;2022-07-09T10:01:27;96726.69;;;33.83;22.20
46456;BME280;32154;47.160;8.120;2022-07-09T10:06:48;96726.59;;;33.73;23.20
46456;BME280;32154;47.160;8.120;2022-07-09T10:17:13;96718.53;;;30.46;25.68
46456;BME280;32154;47.160;8.120;2022-07-09T10:22:15;96713.19;;;29.61;28.44
46456;BME280;32154;47.160;8.120;2022-07-09T10:27:44;96717.13;;;31.08;25.83
46456;BME280;32154;47.160;8.120;2022-07-09T10:32:47;96712.16;;;32.44;24.82
46456;BME280;32154;47.160;8.120;2022-07-09T10:38:02;96710.19;;;32.39;23.84
46456;BME280;32154;47.160;8.120;2022-07-09T10:43:05;96710.75;;;29.22;27.83
46456;BME280;32154;47.160;8.120;2022-07-09T10:48:08;96711.47;;;30.98;26.19
46456;BME280;32154;47.160;8.120;2022-07-09T10:53:12;96701.31;;;29.86;26.11
46456;BME280;32154;47.160;8.120;2022-07-09T10:58:33;96695.13;;;33.43;26.17
46456;BME280;32154;47.160;8.120;2022-07-09T11:03:54;96682.00;;;32.73;23.76
46456;BME280;32154;47.160;8.120;2022-07-09T11:08:56;96690.19;;;29.87;27.18
46456;BME280;32154;47.160;8.120;2022-07-09T11:13:59;96680.50;;;29.92;26.30
46456;BME280;32154;47.160;8.120;2022-07-09T11:19:15;96669.81;;;29.54;25.98
46456;BME280;32154;47.160;8.120;2022-07-09T11:24:19;96663.44;;;28.62;27.01
46456;BME280;32154;47.160;8.120;2022-07-09T11:29:46;96662.50;;;30.86;27.21
46456;BME280;32154;47.160;8.120;2022-07-09T11:35:00;96665.34;;;29.29;28.04
46456;BME280;32154;47.160;8.120;2022-07-09T11:40:04;96644.91;;;29.93;28.21
46456;BME280;32154;47.160;8.120;2022-07-09T11:45:07;96652.63;;;30.32;24.55
46456;BME280;32154;47.160;8.120;2022-07-09T11:50:13;96642.47;;;32.19;23.36
46456;BME280;32154;47.160;8.120;2022-07-09T11:55:21;96635.66;;;31.82;22.53
46456;BME280;32154;47.160;8.120;2022-07-09T12:00:26;96646.00;;;29.80;26.00
46456;BME280;32154;47.160;8.120;2022-07-09T12:05:30;96642.81;;;30.96;25.99
46456;BME280;32154;47.160;8.120;2022-07-09T12:10:38;96646.66;;;30.83;25.31
46456;BME280;32154;47.160;8.120;2022-07-09T12:15:40;96633.56;;;31.55;24.03
46456;BME280;32154;47.160;8.120;2022-07-09T12:20:43;96636.16;;;32.75;22.00
46456;BME280;32154;47.160;8.120;2022-07-09T12:26:04;96631.25;;;31.64;23.25
46456;BME280;32154;47.160;8.120;2022-07-09T12:31:28;96629.34;;;31.18;26.04
46456;BME280;32154;47.160;8.120;2022-07-09T12:36:49;96624.09;;;30.47;24.87
46456;BME280;32154;47.160;8.120;2022-07-09T12:42:00;96619.75;;;29.62;27.28
46456;BME280;32154;47.160;8.120;2022-07-09T12:47:21;96615.09;;;30.58;26.71
46456;BME280;32154;47.160;8.120;2022-07-09T12:52:42;96612.16;;;29.52;25.99
46456;BME280;32154;47.160;8.120;2022-07-09T12:58:03;96605.41;;;29.55;25.83
46456;BME280;32154;47.160;8.120;2022-07-09T13:03:24;96607.63;;;31.52;24.35
46456;BME280;32154;47.160;8.120;2022-07-09T13:08:27;96602.38;;;30.35;25.61
46456;BME280;32154;47.160;8.120;2022-07-09T13:13:30;96606.28;;;29.91;26.52
46456;BME280;32154;47.160;8.120;2022-07-09T13:18:52;96605.13;;;30.11;25.46
46456;BME280;32154;47.160;8.120;2022-07-09T13:23:54;96597.16;;;28.58;26.56
46456;BME280;32154;47.160;8.120;2022-07-09T13:28:56;96587.50;;;29.66;27.49
46456;BME280;32154;47.160;8.120;2022-07-09T13:34:17;96595.06;;;30.11;25.42
46456;BME280;32154;47.160;8.120;2022-07-09T13:39:22;96587.44;;;30.37;23.81
46456;BME280;32154;47.160;8.120;2022-07-09T13:44:46;96583.50;;;29.38;24.39
46456;BME280;32154;47.160;8.120;2022-07-09T13:49:48;96573.28;;;29.52;25.85
46456;BME280;32154;47.160;8.120;2022-07-09T13:54:51;96582.00;;;30.49;23.76
46456;BME280;32154;47.160;8.120;2022-07-09T13:59:58;96569.50;;;29.41;26.73
46456;BME280;32154;47.160;8.120;2022-07-09T14:05:03;96575.38;;;28.46;27.14
46456;BME280;32154;47.160;8.120;2022-07-09T14:10:05;96563.38;;;29.03;26.94
46456;BME280;32154;47.160;8.120;2022-07-09T14:15:27;96562.56;;;30.69;25.13
46456;BME280;32154;47.160;8.120;2022-07-09T14:20:29;96557.44;;;28.94;25.93
46456;BME280;32154;47.160;8.120;2022-07-09T14:25:50;96564.47;;;30.57;26.73
46456;BME280;32154;47.160;8.120;2022-07-09T14:30:53;96552.06;;;29.72;23.68
46456;BME280;32154;47.160;8.120;2022-07-09T14:35:56;96546.75;;;28.13;26.86
46456;BME280;32154;47.160;8.120;2022-07-09T14:40:58;96541.53;;;29.76;24.71
46456;BME280;32154;47.160;8.120;2022-07-09T14:46:00;96539.16;;;30.04;25.91
46456;BME280;32154;47.160;8.120;2022-07-09T14:51:04;96536.69;;;29.00;26.66
46456;BME280;32154;47.160;8.120;2022-07-09T14:56:08;96526.72;;;28.82;26.85
46456;BME280;32154;47.160;8.120;2022-07-09T15:01:12;96527.38;;;28.77;25.38
46456;BME280;32154;47.160;8.120;2022-07-09T15:06:14;96529.81;;;28.36;25.76
46456;BME280;32154;47.160;8.120;2022-07-09T15:11:16;96527.59;;;28.94;26.19
46456;BME280;32154;47.160;8.120;2022-07-09T15:16:37;96521.22;;;30.73;25.73
46456;BME280;32154;47.160;8.120;2022-07-09T15:21:39;96518.81;;;29.23;25.56
46456;BME280;32154;47.160;8.120;2022-07-09T15:26:42;96509.81;;;30.18;25.52
46456;BME280;32154;47.160;8.120;2022-07-09T15:32:03;96484.22;;;29.42;25.31
46456;BME280;32154;47.160;8.120;2022-07-09T15:37:06;96486.38;;;30.87;26.46
46456;BME280;32154;47.160;8.120;2022-07-09T15:42:27;96489.66;;;30.71;25.14
46456;BME280;32154;47.160;8.120;2022-07-09T15:47:48;96487.53;;;29.56;26.13
46456;BME280;32154;47.160;8.120;2022-07-09T15:52:53;96483.72;;;29.21;26.56
46456;BME280;32154;47.160;8.120;2022-07-09T15:58:14;96493.84;;;28.90;27.91
46456;BME280;32154;47.160;8.120;2022-07-09T16:03:35;96486.31;;;29.04;28.19
46456;BME280;32154;47.160;8.120;2022-07-09T16:08:37;96492.13;;;28.77;26.73
46456;BME280;32154;47.160;8.120;2022-07-09T16:13:59;96489.53;;;28.52;29.10
46456;BME280;32154;47.160;8.120;2022-07-09T16:19:04;96484.97;;;28.52;27.21
46456;BME280;32154;47.160;8.120;2022-07-09T16:24:08;96478.97;;;28.31;27.21
46456;BME280;32154;47.160;8.120;2022-07-09T16:29:13;96487.19;;;28.06;27.58
46456;BME280;32154;47.160;8.120;2022-07-09T16:34:15;96476.13;;;28.87;26.01
46456;BME280;32154;47.160;8.120;2022-07-09T16:39:38;96472.72;;;28.12;27.75
46456;BME280;32154;47.160;8.120;2022-07-09T16:45:08;96468.16;;;27.94;27.23
46456;BME280;32154;47.160;8.120;2022-07-09T16:50:13;96471.94;;;27.74;27.55
46456;BME280;32154;47.160;8.120;2022-07-09T16:55:16;96466.88;;;28.46;25.89
46456;BME280;32154;47.160;8.120;2022-07-09T17:00:21;96462.25;;;28.65;28.40
46456;BME280;32154;47.160;8.120;2022-07-09T17:05:43;96462.06;;;27.80;28.42
46456;BME280;32154;47.160;8.120;2022-07-09T17:10:51;96453.16;;;28.29;26.55
46456;BME280;32154;47.160;8.120;2022-07-09T17:15:56;96461.81;;;27.82;28.17
46456;BME280;32154;47.160;8.120;2022-07-09T17:20:58;96460.25;;;28.72;29.50
46456;BME280;32154;47.160;8.120;2022-07-09T17:26:01;96461.63;;;27.83;29.26
46456;BME280;32154;47.160;8.120;2022-07-09T17:31:26;96466.16;;;28.69;28.57
46456;BME280;32154;47.160;8.120;2022-07-09T17:36:28;96462.94;;;29.03;30.69
46456;BME280;32154;47.160;8.120;2022-07-09T17:41:30;96466.88;;;27.78;28.91
46456;BME280;32154;47.160;8.120;2022-07-09T17:46:38;96466.56;;;28.24;28.02
46456;BME280;32154;47.160;8.120;2022-07-09T17:51:41;96458.72;;;28.15;28.46
46456;BME280;32154;47.160;8.120;2022-07-09T17:56:44;96466.72;;;28.59;30.13
46456;BME280;32154;47.160;8.120;2022-07-09T18:01:49;96460.91;;;28.98;31.85
46456;BME280;32154;47.160;8.120;2022-07-09T18:06:55;96461.41;;;29.07;31.28
46456;BME280;32154;47.160;8.120;2022-07-09T18:12:26;96457.84;;;28.83;32.43
46456;BME280;32154;47.160;8.120;2022-07-09T18:17:29;96459.97;;;28.62;33.28
46456;BME280;32154;47.160;8.120;2022-07-09T18:22:52;96461.22;;;28.78;31.91
46456;BME280;32154;47.160;8.120;2022-07-09T18:27:57;96460.25;;;28.72;32.42
46456;BME280;32154;47.160;8.120;2022-07-09T18:33:20;96464.78;;;28.48;33.20
46456;BME280;32154;47.160;8.120;2022-07-09T18:38:25;96450.56;;;28.34;33.57
46456;BME280;32154;47.160;8.120;2022-07-09T18:43:48;96455.13;;;28.03;36.97
46456;BME280;32154;47.160;8.120;2022-07-09T18:48:51;96445.66;;;27.75;36.43
46456;BME280;32154;47.160;8.120;2022-07-09T18:53:56;96453.66;;;27.44;36.94
46456;BME280;32154;47.160;8.120;2022-07-09T18:59:06;96452.38;;;27.47;37.65
46456;BME280;32154;47.160;8.120;2022-07-09T19:04:35;96459.06;;;27.26;36.08
46456;BME280;32154;47.160;8.120;2022-07-09T19:09:38;96459.25;;;27.24;40.83
46456;BME280;32154;47.160;8.120;2022-07-09T19:14:59;96460.28;;;27.04;39.62
46456;BME280;32154;47.160;8.120;2022-07-09T19:20:21;96462.25;;;26.90;42.07
46456;BME280;32154;47.160;8.120;2022-07-09T19:25:28;96472.56;;;26.36;41.33
46456;BME280;32154;47.160;8.120;2022-07-09T19:30:40;96468.41;;;26.33;38.42
46456;BME280;32154;47.160;8.120;2022-07-09T19:36:04;96476.53;;;26.33;39.48
46456;BME280;32154;47.160;8.120;2022-07-09T19:41:07;96484.31;;;26.03;41.53
46456;BME280;32154;47.160;8.120;2022-07-09T19:46:31;96489.38;;;25.79;42.84
46456;BME280;32154;47.160;8.120;2022-07-09T19:51:38;96482.41;;;25.51;41.67
46456;BME280;32154;47.160;8.120;2022-07-09T19:56:59;96483.44;;;25.30;41.92
46456;BME280;32154;47.160;8.120;2022-07-09T20:02:20;96484.06;;;25.18;42.74
46456;BME280;32154;47.160;8.120;2022-07-09T20:07:43;96493.41;;;25.22;40.59
46456;BME280;32154;47.160;8.120;2022-07-09T20:12:46;96498.81;;;25.16;41.53
46456;BME280;32154;47.160;8.120;2022-07-09T20:18:07;96494.03;;;24.97;42.00
46456;BME280;32154;47.160;8.120;2022-07-09T20:23:13;96486.72;;;24.58;45.17
46456;BME280;32154;47.160;8.120;2022-07-09T20:28:18;96506.16;;;24.39;44.85
46456;BME280;32154;47.160;8.120;2022-07-09T20:33:26;96502.47;;;24.61;43.94
46456;BME280;32154;47.160;8.120;2022-07-09T20:38:46;96497.81;;;24.34;45.17
46456;BME280;32154;47.160;8.120;2022-07-09T20:43:49;96502.75;;;24.24;45.86
46456;BME280;32154;47.160;8.120;2022-07-09T20:48:51;96498.34;;;24.09;46.43
46456;BME280;32154;47.160;8.120;2022-07-09T20:53:53;96505.22;;;24.12;43.63
46456;BME280;32154;47.160;8.120;2022-07-09T20:58:56;96505.25;;;24.25;43.32
46456;BME280;32154;47.160;8.120;2022-07-09T21:04:16;96504.78;;;24.08;46.17
46456;BME280;32154;47.160;8.120;2022-07-09T21:09:21;96503.13;;;24.07;44.13
46456;BME280;32154;47.160;8.120;2022-07-09T21:14:26;96510.59;;;23.77;48.21
46456;BME280;32154;47.160;8.120;2022-07-09T21:19:46;96504.63;;;23.81;48.36
46456;BME280;32154;47.160;8.120;2022-07-09T21:25:10;96509.72;;;23.69;47.16
46456;BME280;32154;47.160;8.120;2022-07-09T21:30:13;96506.19;;;23.62;49.12
46456;BME280;32154;47.160;8.120;2022-07-09T21:35:36;96509.38;;;23.44;47.11
46456;BME280;32154;47.160;8.120;2022-07-09T21:40:41;96505.16;;;23.35;48.05
46456;BME280;32154;47.160;8.120;2022-07-09T21:45:45;96502.28;;;23.36;47.57
46456;BME280;32154;47.160;8.120;2022-07-09T21:50:48;96504.13;;;23.36;49.18
46456;BME280;32154;47.160;8.120;2022-07-09T21:55:50;96502.66;;;23.33;49.21
46456;BME280;32154;47.160;8.120;2022-07-09T22:00:54;96499.06;;;23.26;48.54
46456;BME280;32154;47.160;8.120;2022-07-09T22:06:15;96487.63;;;23.17;48.93
46456;BME280;32154;47.160;8.120;2022-07-09T22:11:17;96488.66;;;23.16;49.10
46456;BME280;32154;47.160;8.120;2022-07-09T22:16:38;96479.78;;;23.22;49.49
46456;BME280;32154;47.160;8.120;2022-07-09T22:21:43;96488.44;;;23.17;49.75
46456;BME280;32154;47.160;8.120;2022-07-09T22:26:48;96483.34;;;23.01;49.80
46456;BME280;32154;47.160;8.120;2022-07-09T22:31:51;96482.34;;;22.80;51.20
46456;BME280;32154;47.160;8.120;2022-07-09T22:36:55;96479.19;;;22.77;51.72
46456;BME280;32154;47.160;8.120;2022-07-09T22:41:57;96477.13;;;23.00;50.11
46456;BME280;32154;47.160;8.120;2022-07-09T22:47:05;96471.59;;;22.80;51.25
46456;BME280;32154;47.160;8.120;2022-07-09T22:52:10;96468.38;;;22.70;51.30
46456;BME280;32154;47.160;8.120;2022-07-09T22:57:12;96468.03;;;22.73;51.48
46456;BME280;32154;47.160;8.120;2022-07-09T23:02:37;96472.94;;;22.91;51.33
46456;BME280;32154;47.160;8.120;2022-07-09T23:07:58;96470.00;;;22.86;52.11
46456;BME280;32154;47.160;8.120;2022-07-09T23:13:00;96468.72;;;22.82;51.11
46456;BME280;32154;47.160;8.120;2022-07-09T23:18:05;96470.25;;;22.69;49.23
46456;BME280;32154;47.160;8.120;2022-07-09T23:23:10;96463.19;;;22.46;51.20
46456;BME280;32154;47.160;8.120;2022-07-09T23:28:12;96460.34;;;22.48;51.07
46456;BME280;32154;47.160;8.120;2022-07-09T23:33:15;96453.47;;;22.45;50.22
46456;BME280;32154;47.160;8.120;2022-07-09T23:38:17;96466.06;;;22.45;50.51
46456;BME280;32154;47.160;8.120;2022-07-09T23:43:38;96454.78;;;22.13;50.63
46456;BME280;32154;47.160;8.120;2022-07-09T23:48:41;96455.56;;;22.28;49.95
46456;BME280;32154;47.160;8.120;2022-07-09T23:53:43;96448.84;;;22.17;51.06
46456;BME280;32154;47.160;8.120;2022-07-09T23:59:06;96442.09;;;22.07;50.91
